• Join FlightAware (Why Join?)
  • Login
  • US Flag 
05:06AM EDT


 

Airport Tracker/Info


-or-


 

Live Flight TrackerFlight Track Log ✈ JBU1329 ✈ 20-Apr-2013 ✈ KBOS - KBWI

Flight Track Log - Related Links

Times and Time Zones

All times are in EDT time to prevent confusion due to time zone crossing. See the JBU1329 flight status page for this flight to view local times or setup timezone preferences in your user account.

Time Position Orientation Groundspeed Altitude Reporting Facility
EDT Latitude Longitude Course Direction KTS MPH feet Rate Location/Type
08:17AM 42.3500 -71.0167 228° Southwest 156 180 600  Level KA90
08:18AM 42.3000 -70.9333 129° Southeast 258 297 3,500 2,160 Climbing KA90
08:19AM 42.3167 -70.8678 71° East 292 336 5,000 2,160 Climbing Boston Center
08:20AM 42.3297 -70.7692 80° East 326 375 7,000 2,700 Climbing Boston Center
08:21AM 42.3085 -70.7184 172° South  Level FlightAware Approximate
08:21AM 42.2767 -70.7058 139° Southeast 323 372 10,400  Level Boston Center
08:22AM 42.2626 -70.7728 228° Southwest  Level FlightAware Approximate
08:22AM 42.2125 -70.7303 196° South 220 253 12,900  Level Boston Center
08:23AM 42.1806 -70.8264 246° West 194 223 15,300 2,400 Climbing Boston Center
08:24AM 42.1653 -70.9358 259° West 239 275 17,800 2,160 Climbing Boston Center
08:25AM 42.1544 -71.0539 263° West 278 320 19,700 1,920 Climbing Boston Center
08:26AM 42.1392 -71.1744 260° West 316 364 21,700 1,920 Climbing Boston Center
08:27AM 42.1236 -71.2953 260° West 329 379 23,600 1,680 Climbing Boston Center
08:28AM 42.0872 -71.3994 245° Southwest 329 379 25,100 1,260 Climbing Boston Center
08:29AM 42.0464 -71.5119 244° Southwest 329 379 26,200 1,500 Climbing Boston Center
08:30AM 41.9975 -71.6356 242° Southwest 343 395 28,400 1,680 Climbing Boston Center
08:31AM 41.9503 -71.7675 244° Southwest 338 389 29,900 780 Climbing Boston Center
08:32AM 41.9072 -71.8878 244° Southwest 338 389 30,000  Climbing Boston Center
08:33AM 41.8639 -72.0081 244° Southwest 350 403 30,000  Level Boston Center
08:34AM 41.8206 -72.1308 245° Southwest 360 414 30,000  Level Boston Center
08:35AM 41.7772 -72.2508 244° Southwest 360 414 30,000  Level Boston Center
08:36AM 41.7314 -72.3678 242° Southwest 360 414 30,000  Level Boston Center
08:37AM 41.6897 -72.4872 245° Southwest 360 414 30,000  Level Boston Center
08:38AM 41.6436 -72.6067 243° Southwest 360 414 30,000  Level Boston Center
08:39AM 41.6019 -72.7233 245° Southwest 360 414 30,000  Level Boston Center
08:40AM 41.5578 -72.8422 244° Southwest 360 414 30,000  Level Boston Center
08:41AM 41.5178 -72.9558 245° Southwest 355 409 30,000  Level Boston Center
08:42AM 41.4733 -73.0744 243° Southwest 355 409 30,000  Level Boston Center
08:43AM 41.4308 -73.1903 244° Southwest 355 409 30,000  Level Boston Center
08:44AM 41.3864 -73.3089 243° Southwest 360 414 30,000  Level Boston Center
08:46AM 41.2844 -73.5736 243° Southwest 354 407 30,000  Level New York Center
08:47AM 41.2300 -73.6761 235° Southwest 359 413 30,000  Level New York Center
08:48AM 41.1692 -73.7728 230° Southwest 354 407 30,000  Level New York Center
08:49AM 41.1106 -73.8692 231° Southwest 354 407 30,000 -60 Level New York Center
08:50AM 41.0536 -73.9711 233° Southwest 349 402 29,900  Descending New York Center
08:51AM 40.9925 -74.0700 231° Southwest 349 402 30,000 -480 Climbing New York Center
08:52AM 40.9269 -74.1794 232° Southwest 349 402 29,000 -1,200 Descending New York Center
08:53AM 40.8725 -74.2644 230° Southwest 349 402 27,700 -1,380 Descending New York Center
08:54AM 40.8156 -74.3575 231° Southwest 344 396 26,300 -1,500 Descending New York Center
08:55AM 40.7628 -74.4450 231° Southwest 332 382 24,800 -1,200 Descending New York Center
08:56AM 40.7100 -74.5300 231° Southwest 319 367 23,900 -420 Descending New York Center
08:57AM 40.6572 -74.6200 232° Southwest 313 360 24,000 -180 Climbing New York Center
08:59AM 40.6044 -74.7072 231° Southwest 313 360 23,600 -600 Descending New York Center
09:00AM 40.5494 -74.7914 229° Southwest 313 360 22,800 -840 Descending New York Center
09:01AM 40.4906 -74.8697 225° Southwest 313 360 22,000 -780 Descending New York Center
09:01AM 40.4333 -74.9511 227° Southwest 313 360 21,300 -780 Descending New York Center
09:02AM 40.3783 -75.0347 229° Southwest 313 360 20,500 -840 Descending New York Center
09:03AM 40.3192 -75.1156 226° Southwest 308 354 19,700 -840 Descending New York Center
09:05AM 40.2597 -75.1961 226° Southwest 308 354 18,900 -840 Descending New York Center
09:06AM 40.1917 -75.2897 226° Southwest 308 354 18,100 -480 Descending New York Center
09:06AM 40.1408 -75.3622 227° Southwest 308 354 18,000 -60 Descending New York Center
09:07AM 40.0750 -75.4475 225° Southwest 308 354 18,000  Level New York Center
09:09AM 40.0242 -75.5200 228° Southwest 308 354 18,000  Level New York Center
09:09AM 39.9600 -75.6078 226° Southwest 303 349 18,000 -60 Level New York Center
09:10AM 39.9111 -75.6856 231° Southwest 308 354 17,900 -660 Descending New York Center
09:11AM 39.8589 -75.7847 236° Southwest 308 354 16,700 -1,440 Descending New York Center
09:12AM 39.8203 -75.8603 236° Southwest 292 336 15,100 -1,500 Descending New York Center
09:14AM 39.7333 -76.0167 234° Southwest 268 308 12,700 -1,140 Descending Potomac TRACON
09:15AM 39.7000 -76.0833 237° Southwest 225 259 12,100 -600 Descending Potomac TRACON
09:16AM 39.6667 -76.1500 237° Southwest 230 265 11,600 -1,380 Descending Potomac TRACON
09:17AM 39.6167 -76.2167 226° Southwest 250 288 9,400 -2,100 Descending Potomac TRACON
09:18AM 39.5667 -76.2667 218° Southwest 263 303 7,400 -1,560 Descending Potomac TRACON
09:19AM 39.5167 -76.3167 218° Southwest 256 295 6,500 -900 Descending Potomac TRACON
09:20AM 39.4500 -76.3833 218° Southwest 257 296 5,700 -780 Descending Potomac TRACON
09:21AM 39.4000 -76.4167 207° Southwest 273 314 5,000 -720 Descending Potomac TRACON
09:22AM 39.3167 -76.4333 189° South 274 315 4,400 -900 Descending Potomac TRACON
09:23AM 39.2500 -76.4500 191° South 265 305 3,200 -1,020 Descending Potomac TRACON
09:24AM 39.1833 -76.5000 210° Southwest 242 278 2,300 -600 Descending Potomac TRACON
09:25AM 39.1333 -76.5333 207° Southwest 203 234 2,000 -240 Descending Potomac TRACON
09:26AM 39.1000 -76.5833 229° Southwest 166 191 1,900 -420 Descending Potomac TRACON
09:27AM 39.1167 -76.6167 303° West 146 168 1,200 -780 Descending Potomac TRACON
09:28AM 39.1500 -76.6500 322° Northwest 136 157 500 -780 Descending Potomac TRACON
09:30AM 39.1667 -76.6667 270° West  Level FlightAware Approximate
09:37AM 39.1754 -76.6683 270° West  Level Estimated